sensor_id;sensor_type;location;lat;lon;timestamp;pressure;altitude;pressure_sealevel;temperature;humidity
41222;BME280;26952;42.884;23.918;2023-02-12T00:00:22;96774.06;;;-3.35;92.91
41222;BME280;26952;42.884;23.918;2023-02-12T00:02:47;96791.22;;;-3.14;92.73
41222;BME280;26952;42.884;23.918;2023-02-12T00:05:12;96775.97;;;-3.20;92.44
41222;BME280;26952;42.884;23.918;2023-02-12T00:07:40;96772.59;;;-3.22;93.19
41222;BME280;26952;42.884;23.918;2023-02-12T00:10:06;96807.69;;;-3.35;94.04
41222;BME280;26952;42.884;23.918;2023-02-12T00:12:31;96795.53;;;-3.33;94.68
41222;BME280;26952;42.884;23.918;2023-02-12T00:14:57;96793.22;;;-3.39;96.30
41222;BME280;26952;42.884;23.918;2023-02-12T00:17:22;96806.94;;;-3.57;97.70
41222;BME280;26952;42.884;23.918;2023-02-12T00:19:48;96793.47;;;-3.65;97.76
41222;BME280;26952;42.884;23.918;2023-02-12T00:22:13;96780.59;;;-3.47;96.72
41222;BME280;26952;42.884;23.918;2023-02-12T00:24:38;96772.97;;;-3.50;95.23
41222;BME280;26952;42.884;23.918;2023-02-12T00:27:04;96765.25;;;-3.31;93.52
41222;BME280;26952;42.884;23.918;2023-02-12T00:29:29;96774.53;;;-3.07;92.33
41222;BME280;26952;42.884;23.918;2023-02-12T00:31:55;96769.44;;;-3.09;91.31
41222;BME280;26952;42.884;23.918;2023-02-12T00:34:20;96734.56;;;-3.20;89.92
41222;BME280;26952;42.884;23.918;2023-02-12T00:36:45;96779.09;;;-2.94;87.31
41222;BME280;26952;42.884;23.918;2023-02-12T00:39:11;96782.34;;;-2.89;88.72
41222;BME280;26952;42.884;23.918;2023-02-12T00:41:36;96774.59;;;-2.90;89.25
41222;BME280;26952;42.884;23.918;2023-02-12T00:44:02;96791.41;;;-2.80;86.85
41222;BME280;26952;42.884;23.918;2023-02-12T00:46:27;96780.22;;;-2.99;87.71
41222;BME280;26952;42.884;23.918;2023-02-12T00:48:53;96765.19;;;-3.30;88.97
41222;BME280;26952;42.884;23.918;2023-02-12T00:51:18;96756.84;;;-3.36;90.50
41222;BME280;26952;42.884;23.918;2023-02-12T00:53:43;96774.59;;;-3.47;91.76
41222;BME280;26952;42.884;23.918;2023-02-12T00:56:09;96799.41;;;-3.43;92.17
41222;BME280;26952;42.884;23.918;2023-02-12T00:58:34;96791.66;;;-3.43;92.23
41222;BME280;26952;42.884;23.918;2023-02-12T01:01:00;96796.81;;;-3.43;92.79
41222;BME280;26952;42.884;23.918;2023-02-12T01:03:25;96776.41;;;-3.49;92.21
41222;BME280;26952;42.884;23.918;2023-02-12T01:05:52;96790.75;;;-3.42;91.78
41222;BME280;26952;42.884;23.918;2023-02-12T01:08:18;96763.53;;;-3.31;92.00
41222;BME280;26952;42.884;23.918;2023-02-12T01:10:43;96790.69;;;-3.02;91.75
41222;BME280;26952;42.884;23.918;2023-02-12T01:13:12;96786.81;;;-2.92;90.17
41222;BME280;26952;42.884;23.918;2023-02-12T01:15:39;96784.28;;;-2.75;90.24
41222;BME280;26952;42.884;23.918;2023-02-12T01:18:05;96761.88;;;-2.76;90.54
41222;BME280;26952;42.884;23.918;2023-02-12T01:20:30;96770.41;;;-2.55;88.40
41222;BME280;26952;42.884;23.918;2023-02-12T01:22:55;96770.81;;;-2.46;86.56
41222;BME280;26952;42.884;23.918;2023-02-12T01:25:21;96767.66;;;-2.34;87.82
41222;BME280;26952;42.884;23.918;2023-02-12T01:27:47;96770.59;;;-2.23;88.25
41222;BME280;26952;42.884;23.918;2023-02-12T01:30:13;96766.16;;;-2.21;89.56
41222;BME280;26952;42.884;23.918;2023-02-12T01:32:38;96768.63;;;-2.01;85.91
41222;BME280;26952;42.884;23.918;2023-02-12T01:35:04;96753.75;;;-1.97;86.30
41222;BME280;26952;42.884;23.918;2023-02-12T01:37:30;96754.13;;;-1.88;85.63
41222;BME280;26952;42.884;23.918;2023-02-12T01:39:55;96767.41;;;-1.77;87.11
41222;BME280;26952;42.884;23.918;2023-02-12T01:42:21;96759.34;;;-1.88;87.98
41222;BME280;26952;42.884;23.918;2023-02-12T01:47:37;96755.91;;;-1.88;93.14
41222;BME280;26952;42.884;23.918;2023-02-12T01:50:04;96766.59;;;-1.77;88.48
41222;BME280;26952;42.884;23.918;2023-02-12T01:52:33;96747.19;;;-1.70;90.20
41222;BME280;26952;42.884;23.918;2023-02-12T01:55:02;96740.88;;;-1.65;91.23
41222;BME280;26952;42.884;23.918;2023-02-12T01:57:31;96735.84;;;-1.68;90.21
41222;BME280;26952;42.884;23.918;2023-02-12T02:00:00;96738.72;;;-1.57;88.70
41222;BME280;26952;42.884;23.918;2023-02-12T02:02:29;96748.34;;;-1.59;92.29
41222;BME280;26952;42.884;23.918;2023-02-12T02:04:58;96750.25;;;-1.62;93.22
41222;BME280;26952;42.884;23.918;2023-02-12T02:07:24;96745.28;;;-1.50;92.94
41222;BME280;26952;42.884;23.918;2023-02-12T02:09:50;96734.47;;;-1.58;91.70
41222;BME280;26952;42.884;23.918;2023-02-12T02:12:16;96723.84;;;-1.70;91.79
41222;BME280;26952;42.884;23.918;2023-02-12T02:15:02;96737.50;;;-1.67;91.57
41222;BME280;26952;42.884;23.918;2023-02-12T02:26:21;96747.56;;;-1.26;88.02
41222;BME280;26952;42.884;23.918;2023-02-12T02:29:08;96745.44;;;-1.20;86.22
41222;BME280;26952;42.884;23.918;2023-02-12T02:31:45;96735.63;;;-1.30;85.73
41222;BME280;26952;42.884;23.918;2023-02-12T02:39:49;96744.81;;;-1.41;88.06
41222;BME280;26952;42.884;23.918;2023-02-12T02:45:15;96749.88;;;-1.72;86.27
41222;BME280;26952;42.884;23.918;2023-02-12T02:48:03;96725.69;;;-1.89;87.06
41222;BME280;26952;42.884;23.918;2023-02-12T02:50:31;96733.00;;;-1.63;87.11
41222;BME280;26952;42.884;23.918;2023-02-12T02:53:10;96733.22;;;-1.51;87.08
41222;BME280;26952;42.884;23.918;2023-02-12T02:55:45;96765.41;;;-1.38;86.99
41222;BME280;26952;42.884;23.918;2023-02-12T02:58:16;96718.41;;;-1.49;84.35
41222;BME280;26952;42.884;23.918;2023-02-12T03:01:00;96775.38;;;-1.13;84.00
41222;BME280;26952;42.884;23.918;2023-02-12T03:03:38;96754.63;;;-1.13;86.71
41222;BME280;26952;42.884;23.918;2023-02-12T03:09:21;96775.84;;;-1.05;86.62
41222;BME280;26952;42.884;23.918;2023-02-12T03:11:48;96767.94;;;-1.03;88.38
41222;BME280;26952;42.884;23.918;2023-02-12T03:14:21;96765.56;;;-0.91;87.42
41222;BME280;26952;42.884;23.918;2023-02-12T03:16:50;96771.38;;;-0.70;87.24
41222;BME280;26952;42.884;23.918;2023-02-12T03:19:24;96718.47;;;-0.85;87.88
41222;BME280;26952;42.884;23.918;2023-02-12T03:22:00;96744.81;;;-0.75;89.58
41222;BME280;26952;42.884;23.918;2023-02-12T03:24:34;96771.94;;;-0.81;85.46
41222;BME280;26952;42.884;23.918;2023-02-12T03:27:33;96760.50;;;-1.09;87.31
41222;BME280;26952;42.884;23.918;2023-02-12T03:30:02;96763.84;;;-1.07;86.45
41222;BME280;26952;42.884;23.918;2023-02-12T03:35:15;96769.66;;;-1.02;84.62
41222;BME280;26952;42.884;23.918;2023-02-12T03:40:19;96753.38;;;-1.38;87.67
41222;BME280;26952;42.884;23.918;2023-02-12T03:43:01;96758.69;;;-1.24;85.76
41222;BME280;26952;42.884;23.918;2023-02-12T03:45:37;96764.19;;;-1.30;84.22
41222;BME280;26952;42.884;23.918;2023-02-12T03:48:32;96748.19;;;-1.38;86.81
41222;BME280;26952;42.884;23.918;2023-02-12T03:51:14;96736.94;;;-1.39;84.97
41222;BME280;26952;42.884;23.918;2023-02-12T03:53:44;96750.91;;;-1.24;85.40
41222;BME280;26952;42.884;23.918;2023-02-12T03:56:21;96754.63;;;-1.13;85.75
41222;BME280;26952;42.884;23.918;2023-02-12T03:58:48;96759.19;;;-1.01;84.27
41222;BME280;26952;42.884;23.918;2023-02-12T04:01:14;96755.56;;;-0.98;83.74
41222;BME280;26952;42.884;23.918;2023-02-12T04:03:39;96727.06;;;-1.15;84.98
41222;BME280;26952;42.884;23.918;2023-02-12T04:06:18;96750.06;;;-1.25;89.92
41222;BME280;26952;42.884;23.918;2023-02-12T04:08:43;96758.97;;;-1.13;91.81
41222;BME280;26952;42.884;23.918;2023-02-12T04:11:15;96767.94;;;-0.86;92.43
41222;BME280;26952;42.884;23.918;2023-02-12T04:20:06;96767.94;;;-0.86;100.00
41222;BME280;26952;42.884;23.918;2023-02-12T04:33:45;96759.69;;;-0.94;100.00
41222;BME280;26952;42.884;23.918;2023-02-12T04:36:16;96772.59;;;-0.93;92.59
41222;BME280;26952;42.884;23.918;2023-02-12T04:38:56;96762.66;;;-1.17;93.19
41222;BME280;26952;42.884;23.918;2023-02-12T04:41:24;96773.16;;;-1.03;95.04
41222;BME280;26952;42.884;23.918;2023-02-12T04:43:49;96757.19;;;-0.96;94.23
41222;BME280;26952;42.884;23.918;2023-02-12T04:46:15;96758.06;;;-1.12;96.59
41222;BME280;26952;42.884;23.918;2023-02-12T04:49:08;96776.59;;;-1.03;100.00
41222;BME280;26952;42.884;23.918;2023-02-12T04:51:37;96768.03;;;-1.05;100.00
41222;BME280;26952;42.884;23.918;2023-02-12T04:54:02;96781.09;;;-1.06;95.26
41222;BME280;26952;42.884;23.918;2023-02-12T04:56:28;96771.38;;;-1.18;93.34
41222;BME280;26952;42.884;23.918;2023-02-12T04:58:53;96780.66;;;-1.14;95.75
41222;BME280;26952;42.884;23.918;2023-02-12T05:01:22;96780.06;;;-1.19;98.63
41222;BME280;26952;42.884;23.918;2023-02-12T05:03:47;96769.84;;;-1.22;95.20
41222;BME280;26952;42.884;23.918;2023-02-12T05:06:13;96766.78;;;-1.30;97.91
41222;BME280;26952;42.884;23.918;2023-02-12T05:08:38;96773.03;;;-1.17;99.85
41222;BME280;26952;42.884;23.918;2023-02-12T05:11:06;96767.34;;;-1.08;100.00
41222;BME280;26952;42.884;23.918;2023-02-12T05:13:31;96793.66;;;-0.82;100.00
41222;BME280;26952;42.884;23.918;2023-02-12T05:15:57;96800.41;;;-0.95;97.35
41222;BME280;26952;42.884;23.918;2023-02-12T05:18:22;96775.16;;;-1.08;97.49
41222;BME280;26952;42.884;23.918;2023-02-12T05:20:56;96779.72;;;-1.13;99.68
41222;BME280;26952;42.884;23.918;2023-02-12T05:23:22;96767.75;;;-1.16;100.00
41222;BME280;26952;42.884;23.918;2023-02-12T05:25:47;96791.94;;;-0.98;100.00
41222;BME280;26952;42.884;23.918;2023-02-12T05:28:13;96781.50;;;-0.81;97.49
41222;BME280;26952;42.884;23.918;2023-02-12T05:30:38;96780.41;;;-0.93;100.00
41222;BME280;26952;42.884;23.918;2023-02-12T05:33:03;96799.03;;;-0.85;100.00
41222;BME280;26952;42.884;23.918;2023-02-12T05:35:29;96802.47;;;-0.69;100.00
41222;BME280;26952;42.884;23.918;2023-02-12T05:37:54;96787.91;;;-0.56;100.00
41222;BME280;26952;42.884;23.918;2023-02-12T05:40:20;96784.88;;;-0.48;100.00
41222;BME280;26952;42.884;23.918;2023-02-12T05:42:45;96808.56;;;-0.22;100.00
41222;BME280;26952;42.884;23.918;2023-02-12T05:45:10;96778.50;;;-0.27;100.00
41222;BME280;26952;42.884;23.918;2023-02-12T05:47:36;96815.44;;;-0.05;100.00
41222;BME280;26952;42.884;23.918;2023-02-12T05:50:01;96819.78;;;0.10;100.00
41222;BME280;26952;42.884;23.918;2023-02-12T05:52:27;96824.97;;;0.26;100.00
41222;BME280;26952;42.884;23.918;2023-02-12T05:54:52;96815.38;;;0.26;100.00
41222;BME280;26952;42.884;23.918;2023-02-12T05:57:17;96810.34;;;0.23;100.00
41222;BME280;26952;42.884;23.918;2023-02-12T05:59:43;96816.72;;;0.33;100.00
41222;BME280;26952;42.884;23.918;2023-02-12T06:02:08;96785.03;;;-0.05;100.00
41222;BME280;26952;42.884;23.918;2023-02-12T06:04:34;96824.13;;;0.25;100.00
41222;BME280;26952;42.884;23.918;2023-02-12T06:06:59;96795.41;;;0.27;100.00
41222;BME280;26952;42.884;23.918;2023-02-12T06:09:25;96814.75;;;0.52;99.42
41222;BME280;26952;42.884;23.918;2023-02-12T06:11:50;96794.84;;;0.51;97.68
41222;BME280;26952;42.884;23.918;2023-02-12T06:14:17;96810.50;;;0.65;96.64
41222;BME280;26952;42.884;23.918;2023-02-12T06:16:45;96815.53;;;0.68;95.15
41222;BME280;26952;42.884;23.918;2023-02-12T06:19:11;96808.03;;;0.78;92.04
41222;BME280;26952;42.884;23.918;2023-02-12T06:21:37;96814.66;;;0.83;93.90
41222;BME280;26952;42.884;23.918;2023-02-12T06:24:02;96812.22;;;0.80;95.55
41222;BME280;26952;42.884;23.918;2023-02-12T06:26:29;96821.31;;;0.73;96.76
41222;BME280;26952;42.884;23.918;2023-02-12T06:28:54;96801.22;;;0.61;95.44
41222;BME280;26952;42.884;23.918;2023-02-12T06:31:25;96830.81;;;0.74;93.94
41222;BME280;26952;42.884;23.918;2023-02-12T06:33:50;96807.00;;;0.80;92.41
41222;BME280;26952;42.884;23.918;2023-02-12T06:36:17;96817.53;;;0.93;91.64
41222;BME280;26952;42.884;23.918;2023-02-12T06:38:42;96821.00;;;1.07;91.96
41222;BME280;26952;42.884;23.918;2023-02-12T06:41:08;96815.25;;;1.16;92.79
41222;BME280;26952;42.884;23.918;2023-02-12T06:43:34;96806.78;;;1.27;91.93
41222;BME280;26952;42.884;23.918;2023-02-12T06:46:00;96812.63;;;1.44;89.20
41222;BME280;26952;42.884;23.918;2023-02-12T06:48:26;96802.97;;;1.47;82.16
41222;BME280;26952;42.884;23.918;2023-02-12T06:50:52;96812.63;;;1.44;84.89
41222;BME280;26952;42.884;23.918;2023-02-12T06:53:17;96820.66;;;1.56;87.42
41222;BME280;26952;42.884;23.918;2023-02-12T06:55:43;96816.44;;;1.25;80.85
41222;BME280;26952;42.884;23.918;2023-02-12T06:58:08;96842.03;;;1.04;82.73
41222;BME280;26952;42.884;23.918;2023-02-12T07:00:33;96827.16;;;1.06;83.19
41222;BME280;26952;42.884;23.918;2023-02-12T07:02:59;96829.25;;;1.29;84.23
41222;BME280;26952;42.884;23.918;2023-02-12T07:05:25;96844.78;;;1.31;84.74
41222;BME280;26952;42.884;23.918;2023-02-12T07:07:50;96819.72;;;1.28;84.04
41222;BME280;26952;42.884;23.918;2023-02-12T07:10:16;96856.97;;;1.44;81.97
41222;BME280;26952;42.884;23.918;2023-02-12T07:12:42;96852.06;;;0.82;82.24
41222;BME280;26952;42.884;23.918;2023-02-12T07:15:08;96856.88;;;0.74;82.59
41222;BME280;26952;42.884;23.918;2023-02-12T07:17:33;96829.88;;;0.75;83.49
41222;BME280;26952;42.884;23.918;2023-02-12T07:19:59;96854.91;;;1.07;85.02
41222;BME280;26952;42.884;23.918;2023-02-12T07:22:24;96851.38;;;1.22;84.63
41222;BME280;26952;42.884;23.918;2023-02-12T07:24:49;96848.13;;;1.61;85.50
41222;BME280;26952;42.884;23.918;2023-02-12T07:27:16;96846.88;;;1.95;85.39
41222;BME280;26952;42.884;23.918;2023-02-12T07:29:41;96853.91;;;2.21;81.88
41222;BME280;26952;42.884;23.918;2023-02-12T07:32:06;96843.88;;;2.41;83.17
41222;BME280;26952;42.884;23.918;2023-02-12T07:34:32;96842.59;;;2.61;82.60
41222;BME280;26952;42.884;23.918;2023-02-12T07:36:57;96852.09;;;3.01;82.42
41222;BME280;26952;42.884;23.918;2023-02-12T07:39:23;96856.81;;;2.69;75.30
41222;BME280;26952;42.884;23.918;2023-02-12T07:41:48;96870.03;;;2.80;77.49
41222;BME280;26952;42.884;23.918;2023-02-12T07:44:13;96875.09;;;2.96;73.40
41222;BME280;26952;42.884;23.918;2023-02-12T07:46:47;96887.06;;;2.73;74.22
41222;BME280;26952;42.884;23.918;2023-02-12T07:49:15;96872.69;;;2.93;74.79
41222;BME280;26952;42.884;23.918;2023-02-12T07:51:41;96870.09;;;3.18;73.31
41222;BME280;26952;42.884;23.918;2023-02-12T07:54:07;96876.59;;;3.25;74.14
41222;BME280;26952;42.884;23.918;2023-02-12T07:56:34;96884.56;;;3.11;77.29
41222;BME280;26952;42.884;23.918;2023-02-12T07:59:04;96883.91;;;3.20;75.77
41222;BME280;26952;42.884;23.918;2023-02-12T08:01:39;96890.50;;;3.13;76.36
41222;BME280;26952;42.884;23.918;2023-02-12T08:04:15;96849.16;;;2.54;74.62
41222;BME280;26952;42.884;23.918;2023-02-12T08:06:43;96903.19;;;2.80;75.53
41222;BME280;26952;42.884;23.918;2023-02-12T08:09:11;96871.47;;;2.72;75.23
41222;BME280;26952;42.884;23.918;2023-02-12T08:11:38;96888.81;;;2.73;74.58
41222;BME280;26952;42.884;23.918;2023-02-12T08:14:04;96890.69;;;2.71;76.79
41222;BME280;26952;42.884;23.918;2023-02-12T08:16:30;96897.34;;;2.89;74.39
41222;BME280;26952;42.884;23.918;2023-02-12T08:18:56;96904.84;;;3.08;62.39
41222;BME280;26952;42.884;23.918;2023-02-12T08:21:24;96899.09;;;3.28;61.59
41222;BME280;26952;42.884;23.918;2023-02-12T08:23:50;96909.72;;;3.64;62.26
41222;BME280;26952;42.884;23.918;2023-02-12T08:26:25;96898.91;;;3.68;60.06
41222;BME280;26952;42.884;23.918;2023-02-12T08:31:29;96919.31;;;4.01;56.88
41222;BME280;26952;42.884;23.918;2023-02-12T08:33:55;96914.72;;;4.04;57.57
41222;BME280;26952;42.884;23.918;2023-02-12T08:36:26;96923.28;;;4.19;58.41
41222;BME280;26952;42.884;23.918;2023-02-12T08:38:52;96927.06;;;4.02;58.63
41222;BME280;26952;42.884;23.918;2023-02-12T08:41:20;96927.81;;;4.04;59.64
41222;BME280;26952;42.884;23.918;2023-02-12T08:43:46;96923.47;;;4.28;58.10
41222;BME280;26952;42.884;23.918;2023-02-12T08:46:18;96927.47;;;4.34;55.29
41222;BME280;26952;42.884;23.918;2023-02-12T08:48:44;96946.31;;;4.26;56.73
41222;BME280;26952;42.884;23.918;2023-02-12T08:51:13;96946.91;;;4.43;55.89
41222;BME280;26952;42.884;23.918;2023-02-12T08:53:41;96945.94;;;4.56;54.61
41222;BME280;26952;42.884;23.918;2023-02-12T08:56:09;96939.78;;;4.81;52.74
41222;BME280;26952;42.884;23.918;2023-02-12T08:58:36;96941.69;;;5.02;52.23
41222;BME280;26952;42.884;23.918;2023-02-12T09:01:02;96946.06;;;4.91;51.82
41222;BME280;26952;42.884;23.918;2023-02-12T09:03:28;96938.28;;;5.36;52.76
41222;BME280;26952;42.884;23.918;2023-02-12T09:05:53;96939.44;;;5.67;49.97
41222;BME280;26952;42.884;23.918;2023-02-12T09:08:19;96930.06;;;5.98;49.86
41222;BME280;26952;42.884;23.918;2023-02-12T09:10:45;96950.53;;;6.27;49.44
41222;BME280;26952;42.884;23.918;2023-02-12T09:13:11;96955.53;;;6.30;49.57
41222;BME280;26952;42.884;23.918;2023-02-12T09:15:42;96936.97;;;5.53;50.01
41222;BME280;26952;42.884;23.918;2023-02-12T09:18:09;96957.94;;;5.65;50.11
41222;BME280;26952;42.884;23.918;2023-02-12T09:20:40;96969.94;;;5.57;51.76
41222;BME280;26952;42.884;23.918;2023-02-12T09:23:07;96967.97;;;5.37;51.69
41222;BME280;26952;42.884;23.918;2023-02-12T09:25:33;96961.78;;;5.14;52.27
41222;BME280;26952;42.884;23.918;2023-02-12T09:28:00;96977.03;;;4.86;53.68
41222;BME280;26952;42.884;23.918;2023-02-12T09:30:26;96959.34;;;4.64;54.21
41222;BME280;26952;42.884;23.918;2023-02-12T09:32:51;96978.69;;;4.51;54.61
41222;BME280;26952;42.884;23.918;2023-02-12T09:35:16;96960.28;;;4.14;55.19
41222;BME280;26952;42.884;23.918;2023-02-12T09:37:43;96988.88;;;4.30;56.15
41222;BME280;26952;42.884;23.918;2023-02-12T09:40:17;96972.56;;;4.01;57.49
41222;BME280;26952;42.884;23.918;2023-02-12T09:43:18;96982.00;;;4.16;57.82
41222;BME280;26952;42.884;23.918;2023-02-12T09:51:02;96970.47;;;4.06;58.47
41222;BME280;26952;42.884;23.918;2023-02-12T09:53:34;96967.72;;;4.20;59.16
41222;BME280;26952;42.884;23.918;2023-02-12T09:56:01;96983.53;;;4.19;59.44
41222;BME280;26952;42.884;23.918;2023-02-12T09:58:33;96999.84;;;4.48;57.47
41222;BME280;26952;42.884;23.918;2023-02-12T10:01:05;96987.84;;;4.33;59.22
41222;BME280;26952;42.884;23.918;2023-02-12T10:03:34;97005.66;;;4.28;60.68
41222;BME280;26952;42.884;23.918;2023-02-12T10:06:03;96998.94;;;4.23;60.50
41222;BME280;26952;42.884;23.918;2023-02-12T10:11:30;97008.91;;;4.06;62.93
41222;BME280;26952;42.884;23.918;2023-02-12T10:25:02;97015.75;;;4.08;63.09
41222;BME280;26952;42.884;23.918;2023-02-12T10:27:42;97002.72;;;3.69;63.53
41222;BME280;26952;42.884;23.918;2023-02-12T10:30:18;97003.63;;;3.68;64.06
41222;BME280;26952;42.884;23.918;2023-02-12T10:32:46;96998.47;;;3.54;65.66
41222;BME280;26952;42.884;23.918;2023-02-12T10:35:16;97005.19;;;3.58;67.43
41222;BME280;26952;42.884;23.918;2023-02-12T10:37:49;97023.31;;;3.61;66.54
41222;BME280;26952;42.884;23.918;2023-02-12T10:40:19;97008.94;;;3.54;65.32
41222;BME280;26952;42.884;23.918;2023-02-12T10:42:50;96977.34;;;3.57;63.68
41222;BME280;26952;42.884;23.918;2023-02-12T10:45:19;96988.88;;;3.80;63.93
41222;BME280;26952;42.884;23.918;2023-02-12T10:48:01;97025.16;;;3.98;63.54
41222;BME280;26952;42.884;23.918;2023-02-12T10:53:31;97016.34;;;3.87;64.71
41222;BME280;26952;42.884;23.918;2023-02-12T10:58:56;97021.56;;;3.74;66.69
41222;BME280;26952;42.884;23.918;2023-02-12T11:03:57;97001.97;;;3.67;65.95
41222;BME280;26952;42.884;23.918;2023-02-12T11:06:29;97005.47;;;3.41;67.48
41222;BME280;26952;42.884;23.918;2023-02-12T11:08:56;97015.47;;;3.61;69.22
41222;BME280;26952;42.884;23.918;2023-02-12T11:11:25;97030.13;;;3.76;67.94
41222;BME280;26952;42.884;23.918;2023-02-12T11:14:16;97010.78;;;3.79;67.14
41222;BME280;26952;42.884;23.918;2023-02-12T11:16:58;97030.94;;;4.03;67.31
41222;BME280;26952;42.884;23.918;2023-02-12T11:19:27;96989.31;;;3.86;65.57
41222;BME280;26952;42.884;23.918;2023-02-12T11:22:06;97016.88;;;3.92;65.70
41222;BME280;26952;42.884;23.918;2023-02-12T11:24:35;97028.28;;;3.91;66.72
41222;BME280;26952;42.884;23.918;2023-02-12T11:27:23;97002.44;;;4.11;66.50
41222;BME280;26952;42.884;23.918;2023-02-12T11:30:10;97010.06;;;4.14;65.62
41222;BME280;26952;42.884;23.918;2023-02-12T11:32:37;97029.56;;;4.36;64.61
41222;BME280;26952;42.884;23.918;2023-02-12T11:37:52;97021.19;;;4.18;66.38
41222;BME280;26952;42.884;23.918;2023-02-12T11:40:27;97019.88;;;4.36;65.26
41222;BME280;26952;42.884;23.918;2023-02-12T11:42:58;97022.19;;;4.53;65.22
41222;BME280;26952;42.884;23.918;2023-02-12T11:45:30;97029.09;;;4.54;63.68
41222;BME280;26952;42.884;23.918;2023-02-12T11:47:57;97033.63;;;4.65;63.80
41222;BME280;26952;42.884;23.918;2023-02-12T11:50:26;97022.59;;;4.60;64.41
41222;BME280;26952;42.884;23.918;2023-02-12T11:52:57;97011.03;;;4.75;63.58
41222;BME280;26952;42.884;23.918;2023-02-12T11:55:28;97023.03;;;4.90;63.68
41222;BME280;26952;42.884;23.918;2023-02-12T11:58:02;97026.25;;;5.06;62.58
41222;BME280;26952;42.884;23.918;2023-02-12T12:00:32;97011.69;;;5.02;63.02
41222;BME280;26952;42.884;23.918;2023-02-12T12:03:12;97021.97;;;5.05;61.42
41222;BME280;26952;42.884;23.918;2023-02-12T12:05:44;97024.81;;;5.02;62.76
41222;BME280;26952;42.884;23.918;2023-02-12T12:08:25;97011.84;;;5.35;61.89
41222;BME280;26952;42.884;23.918;2023-02-12T12:10:59;97024.97;;;5.58;59.78
41222;BME280;26952;42.884;23.918;2023-02-12T12:13:35;97016.75;;;5.28;60.05
41222;BME280;26952;42.884;23.918;2023-02-12T12:16:18;97027.50;;;5.13;61.17
41222;BME280;26952;42.884;23.918;2023-02-12T12:19:15;97021.69;;;4.97;63.27
41222;BME280;26952;42.884;23.918;2023-02-12T12:22:15;97023.66;;;4.45;64.89
41222;BME280;26952;42.884;23.918;2023-02-12T12:25:09;97032.25;;;4.59;64.14
41222;BME280;26952;42.884;23.918;2023-02-12T12:27:44;97028.81;;;4.59;65.62
41222;BME280;26952;42.884;23.918;2023-02-12T12:33:25;97041.53;;;5.24;62.55
41222;BME280;26952;42.884;23.918;2023-02-12T12:41:26;97025.38;;;5.18;62.29
41222;BME280;26952;42.884;23.918;2023-02-12T12:44:09;97039.25;;;4.71;65.16
41222;BME280;26952;42.884;23.918;2023-02-12T12:46:43;97042.50;;;4.75;64.27
41222;BME280;26952;42.884;23.918;2023-02-12T12:52:06;97052.06;;;4.63;65.26
41222;BME280;26952;42.884;23.918;2023-02-12T12:54:49;97053.81;;;4.88;64.15
41222;BME280;26952;42.884;23.918;2023-02-12T12:57:25;97046.25;;;4.96;63.83
41222;BME280;26952;42.884;23.918;2023-02-12T13:15:16;97082.06;;;4.47;67.35
41222;BME280;26952;42.884;23.918;2023-02-12T13:17:47;97089.50;;;4.78;66.84
41222;BME280;26952;42.884;23.918;2023-02-12T13:26:17;97075.13;;;4.71;65.88
41222;BME280;26952;42.884;23.918;2023-02-12T13:28:51;97090.31;;;5.27;67.65
41222;BME280;26952;42.884;23.918;2023-02-12T13:31:20;97091.22;;;5.51;62.98
41222;BME280;26952;42.884;23.918;2023-02-12T13:33:52;97079.16;;;5.59;61.88
41222;BME280;26952;42.884;23.918;2023-02-12T13:36:20;97087.91;;;5.84;61.58
41222;BME280;26952;42.884;23.918;2023-02-12T13:41:22;97090.28;;;6.10;60.07
41222;BME280;26952;42.884;23.918;2023-02-12T13:44:10;97096.44;;;6.33;59.26
41222;BME280;26952;42.884;23.918;2023-02-12T13:46:52;97102.19;;;6.49;57.33
41222;BME280;26952;42.884;23.918;2023-02-12T13:52:16;97096.88;;;6.83;56.38
41222;BME280;26952;42.884;23.918;2023-02-12T14:03:22;97104.50;;;5.84;58.55
41222;BME280;26952;42.884;23.918;2023-02-12T14:06:15;97109.56;;;5.75;59.19
41222;BME280;26952;42.884;23.918;2023-02-12T14:08:52;97132.19;;;5.41;59.32
41222;BME280;26952;42.884;23.918;2023-02-12T14:11:31;97127.59;;;5.32;60.10
41222;BME280;26952;42.884;23.918;2023-02-12T14:13:59;97133.28;;;5.26;60.45
41222;BME280;26952;42.884;23.918;2023-02-12T14:22:05;97135.66;;;4.80;62.00
41222;BME280;26952;42.884;23.918;2023-02-12T14:27:18;97144.88;;;4.36;66.42
41222;BME280;26952;42.884;23.918;2023-02-12T14:37:57;97168.53;;;4.21;67.57
41222;BME280;26952;42.884;23.918;2023-02-12T14:40:44;97176.91;;;4.14;67.55
41222;BME280;26952;42.884;23.918;2023-02-12T14:43:36;97177.63;;;4.03;67.97
41222;BME280;26952;42.884;23.918;2023-02-12T14:48:59;97171.13;;;4.09;69.35
41222;BME280;26952;42.884;23.918;2023-02-12T14:51:42;97177.53;;;4.17;67.92
41222;BME280;26952;42.884;23.918;2023-02-12T14:56:51;97192.47;;;4.03;70.61
41222;BME280;26952;42.884;23.918;2023-02-12T14:59:22;97182.97;;;4.02;70.34
41222;BME280;26952;42.884;23.918;2023-02-12T15:01:49;97180.72;;;3.96;70.08
41222;BME280;26952;42.884;23.918;2023-02-12T15:04:27;97190.09;;;4.12;69.35
41222;BME280;26952;42.884;23.918;2023-02-12T15:06:58;97190.72;;;4.03;69.95
41222;BME280;26952;42.884;23.918;2023-02-12T15:09:38;97183.09;;;3.86;67.57
41222;BME280;26952;42.884;23.918;2023-02-12T15:12:25;97212.84;;;3.85;69.27
41222;BME280;26952;42.884;23.918;2023-02-12T15:15:18;97206.31;;;3.78;70.78
41222;BME280;26952;42.884;23.918;2023-02-12T15:20:43;97211.94;;;3.72;69.71
41222;BME280;26952;42.884;23.918;2023-02-12T15:23:31;97234.34;;;3.90;70.37
41222;BME280;26952;42.884;23.918;2023-02-12T15:25:56;97224.59;;;3.92;70.88
41222;BME280;26952;42.884;23.918;2023-02-12T15:28:26;97226.09;;;3.96;72.90
41222;BME280;26952;42.884;23.918;2023-02-12T15:30:58;97235.53;;;3.99;75.40
41222;BME280;26952;42.884;23.918;2023-02-12T15:33:28;97240.13;;;3.95;77.78
41222;BME280;26952;42.884;23.918;2023-02-12T15:35:55;97236.56;;;3.96;79.63
41222;BME280;26952;42.884;23.918;2023-02-12T15:38:27;97210.25;;;3.71;81.33
41222;BME280;26952;42.884;23.918;2023-02-12T15:40:56;97249.75;;;3.54;84.27